createdAt,value
2022-09-28T00:01:06.676Z,2.50
2022-09-28T00:03:34.921Z,2.50
2022-09-28T00:06:04.014Z,2.40
2022-09-28T00:08:32.210Z,2.33
2022-09-28T00:11:00.708Z,2.20
2022-09-28T00:13:29.531Z,2.37
2022-09-28T00:16:03.765Z,2.30
2022-09-28T00:18:32.317Z,2.03
2022-09-28T00:21:04.812Z,2.40
2022-09-28T00:23:33.237Z,2.20
2022-09-28T00:26:04.603Z,2.30
2022-09-28T00:28:32.858Z,2.53
2022-09-28T00:31:03.250Z,2.40
2022-09-28T00:33:31.499Z,2.30
2022-09-28T00:35:59.986Z,2.33
2022-09-28T00:38:29.503Z,2.30
2022-09-28T00:40:57.972Z,2.60
2022-09-28T00:43:26.465Z,3.00
2022-09-28T00:45:58.275Z,2.80
2022-09-28T00:48:28.877Z,2.67
2022-09-28T00:50:57.605Z,2.50
2022-09-28T00:53:26.745Z,2.50
2022-09-28T00:55:55.856Z,2.50
2022-09-28T00:58:25.573Z,2.40
2022-09-28T01:00:53.845Z,2.60
2022-09-28T01:03:22.340Z,2.50
2022-09-28T01:05:52.153Z,1.90
2022-09-28T01:08:21.253Z,2.33
2022-09-28T01:10:50.833Z,2.30
2022-09-28T01:13:21.020Z,1.90
2022-09-28T01:15:53.562Z,1.83
2022-09-28T01:18:26.812Z,2.07
2022-09-28T01:21:02.541Z,2.10
2022-09-28T01:23:44.861Z,2.00
2022-09-28T01:26:33.541Z,1.90
2022-09-28T01:29:04.651Z,2.00
2022-09-28T01:31:34.202Z,2.00
2022-09-28T01:34:05.246Z,1.67
2022-09-28T01:36:36.749Z,1.80
2022-09-28T01:39:07.391Z,1.57
2022-09-28T01:41:38.174Z,2.03
2022-09-28T01:44:06.448Z,2.00
2022-09-28T01:46:35.746Z,2.13
2022-09-28T01:49:07.367Z,1.80
2022-09-28T01:51:38.005Z,2.10
2022-09-28T01:54:08.026Z,1.90
2022-09-28T01:56:39.177Z,2.20
2022-09-28T01:59:08.830Z,2.10
2022-09-28T02:01:38.740Z,2.33
2022-09-28T02:04:09.233Z,2.20
2022-09-28T02:06:38.941Z,2.47
2022-09-28T02:09:09.913Z,2.63
2022-09-28T02:11:46.377Z,2.30
2022-09-28T02:14:15.281Z,2.30
2022-09-28T02:16:46.596Z,2.30
2022-09-28T02:19:15.903Z,2.40
2022-09-28T02:21:45.127Z,2.30
2022-09-28T02:24:21.217Z,2.10
2022-09-28T02:26:52.946Z,2.40
2022-09-28T02:29:21.744Z,2.53
2022-09-28T02:31:50.405Z,2.27
2022-09-28T02:34:18.728Z,2.33
2022-09-28T02:36:47.700Z,2.63
2022-09-28T02:39:17.029Z,2.60
2022-09-28T02:41:52.874Z,2.70
2022-09-28T02:44:33.063Z,2.40
2022-09-28T02:47:01.780Z,2.50
2022-09-28T02:49:39.396Z,2.20
2022-09-28T02:52:20.414Z,2.40
2022-09-28T02:55:21.199Z,2.37
2022-09-28T02:57:58.482Z,2.57
2022-09-28T03:00:28.429Z,2.40
2022-09-28T03:03:01.687Z,2.37
2022-09-28T03:05:34.375Z,2.30
2022-09-28T03:08:03.337Z,2.47
2022-09-28T03:10:35.213Z,2.40
2022-09-28T03:13:03.450Z,2.10
2022-09-28T03:15:33.938Z,2.63
2022-09-28T03:18:02.449Z,2.50
2022-09-28T03:20:31.579Z,2.83
2022-09-28T03:23:23.304Z,2.90
2022-09-28T03:25:48.675Z,2.80
2022-09-28T03:28:17.304Z,2.50
2022-09-28T03:30:47.042Z,2.50
2022-09-28T03:33:15.634Z,2.90
2022-09-28T03:35:45.940Z,2.43
2022-09-28T03:38:14.246Z,2.60
2022-09-28T03:40:43.780Z,2.20
2022-09-28T03:43:12.027Z,2.63
2022-09-28T03:45:40.790Z,2.50
2022-09-28T03:48:10.441Z,2.60
2022-09-28T03:50:38.916Z,2.30
2022-09-28T03:53:07.139Z,2.60
2022-09-28T03:55:35.429Z,2.47
2022-09-28T03:58:03.809Z,2.60
2022-09-28T04:00:32.077Z,2.40
2022-09-28T04:03:00.310Z,2.60
2022-09-28T04:05:30.782Z,2.50
2022-09-28T04:07:59.423Z,2.50
2022-09-28T04:10:28.422Z,3.00
2022-09-28T04:12:56.914Z,2.70
2022-09-28T04:15:25.057Z,2.87
2022-09-28T04:17:53.627Z,2.73
2022-09-28T04:20:48.114Z,3.10
2022-09-28T04:23:16.456Z,2.90
2022-09-28T04:25:48.701Z,2.70
2022-09-28T04:28:34.182Z,2.77
2022-09-28T04:31:02.390Z,3.00
2022-09-28T04:33:30.978Z,3.00
2022-09-28T04:36:01.157Z,3.37
2022-09-28T04:38:51.366Z,3.20
2022-09-28T04:41:18.209Z,3.30
2022-09-28T04:43:47.975Z,3.60
2022-09-28T04:46:17.122Z,3.30
2022-09-28T04:48:54.273Z,3.80
2022-09-28T04:51:42.428Z,3.40
2022-09-28T04:54:10.652Z,3.70
2022-09-28T04:56:38.798Z,3.40
2022-09-28T04:59:07.428Z,3.53
2022-09-28T05:01:37.798Z,3.10
2022-09-28T05:04:26.157Z,2.63
2022-09-28T05:07:18.612Z,3.03
2022-09-28T05:09:46.776Z,2.17
2022-09-28T05:12:16.504Z,2.40
2022-09-28T05:14:44.654Z,2.20
2022-09-28T05:17:12.796Z,2.60
2022-09-28T05:19:59.185Z,2.60
2022-09-28T05:22:28.881Z,2.67
2022-09-28T05:24:58.321Z,2.40
2022-09-28T05:27:26.930Z,2.27
2022-09-28T05:30:09.014Z,2.20
2022-09-28T05:32:55.660Z,2.00
2022-09-28T05:35:30.896Z,2.00
2022-09-28T05:38:03.629Z,2.00
2022-09-28T05:40:32.365Z,2.20
2022-09-28T05:43:02.029Z,1.90
2022-09-28T05:45:30.694Z,2.13
2022-09-28T05:47:58.896Z,2.00
2022-09-28T05:50:27.213Z,1.77
2022-09-28T05:53:04.993Z,1.70
2022-09-28T05:55:33.570Z,1.93
2022-09-28T05:58:02.077Z,1.50
2022-09-28T06:00:30.762Z,1.63
2022-09-28T06:03:00.100Z,2.20
2022-09-28T06:05:29.320Z,1.20
2022-09-28T06:07:58.266Z,1.70
2022-09-28T06:10:28.459Z,1.40
2022-09-28T06:13:00.404Z,1.50
2022-09-28T06:15:29.274Z,1.67
2022-09-28T06:17:58.940Z,1.60
2022-09-28T06:20:44.041Z,1.80
2022-09-28T06:23:19.277Z,1.43
2022-09-28T06:25:48.930Z,1.30
2022-09-28T06:28:17.751Z,1.37
2022-09-28T06:30:48.254Z,1.67
2022-09-28T06:33:19.208Z,1.30
2022-09-28T06:35:48.045Z,1.20
2022-09-28T06:38:16.384Z,1.20
2022-09-28T06:40:44.662Z,1.10
2022-09-28T06:43:15.460Z,1.20
2022-09-28T06:46:03.969Z,1.20
2022-09-28T06:48:51.186Z,1.10
2022-09-28T06:51:25.069Z,0.83
2022-09-28T06:54:02.165Z,1.10
2022-09-28T06:56:50.647Z,0.90
2022-09-28T06:59:22.937Z,0.80
2022-09-28T07:01:52.297Z,1.10
2022-09-28T07:04:42.090Z,1.03
2022-09-28T07:07:28.691Z,1.10
2022-09-28T07:10:17.286Z,1.20
2022-09-28T07:13:04.849Z,1.00
2022-09-28T07:15:47.635Z,0.97
2022-09-28T07:18:18.744Z,0.90
2022-09-28T07:20:53.540Z,1.17
2022-09-28T07:23:22.983Z,1.10
2022-09-28T07:26:09.677Z,0.90
2022-09-28T07:28:58.056Z,0.83
2022-09-28T07:31:47.976Z,0.83
2022-09-28T07:34:43.864Z,0.67
2022-09-28T07:37:26.665Z,0.60
2022-09-28T07:40:12.903Z,1.10
2022-09-28T07:42:41.725Z,0.63
2022-09-28T07:45:11.905Z,0.90
2022-09-28T07:47:41.579Z,0.90
2022-09-28T07:50:28.029Z,0.70
2022-09-28T07:53:04.568Z,0.83
2022-09-28T07:55:42.556Z,0.80
2022-09-28T07:58:34.041Z,1.30
2022-09-28T08:01:21.693Z,1.37
2022-09-28T08:03:56.386Z,0.90
2022-09-28T08:06:25.289Z,1.30
2022-09-28T08:08:56.345Z,0.87
2022-09-28T08:11:33.375Z,1.00
2022-09-28T08:14:21.071Z,0.57
2022-09-28T08:17:16.205Z,0.97
2022-09-28T08:20:12.357Z,1.30
2022-09-28T08:22:40.578Z,1.40
2022-09-28T08:25:10.428Z,1.53
2022-09-28T08:27:38.609Z,1.10
2022-09-28T08:30:08.824Z,1.00
2022-09-28T08:32:52.887Z,1.23
2022-09-28T08:35:41.889Z,2.93
2022-09-28T08:38:17.039Z,2.20
2022-09-28T08:41:26.373Z,1.80
2022-09-28T08:44:23.748Z,1.20
2022-09-28T08:47:34.727Z,3.40
2022-09-28T08:50:18.869Z,1.30
2022-09-28T08:53:04.652Z,1.20
2022-09-28T08:55:51.442Z,1.60
2022-09-28T08:58:22.010Z,0.93
2022-09-28T09:00:50.851Z,1.03
2022-09-28T09:03:22.496Z,0.80
2022-09-28T09:06:18.150Z,1.20
2022-09-28T09:09:02.019Z,1.43
2022-09-28T09:11:38.390Z,1.20
2022-09-28T09:14:19.355Z,0.77
2022-09-28T09:16:59.951Z,1.17
2022-09-28T09:20:01.673Z,1.67
2022-09-28T09:22:57.123Z,1.47
2022-09-28T09:25:28.205Z,1.17
2022-09-28T09:28:45.814Z,1.80
2022-09-28T09:31:22.807Z,1.23
2022-09-28T09:34:07.106Z,1.20
2022-09-28T09:37:03.236Z,2.20
2022-09-28T09:40:10.321Z,1.40
2022-09-28T09:43:07.415Z,1.40
2022-09-28T09:45:57.703Z,1.17
2022-09-28T09:48:36.675Z,1.70
2022-09-28T09:51:07.758Z,1.77
2022-09-28T09:53:38.821Z,0.83
2022-09-28T09:56:14.489Z,1.23
2022-09-28T09:59:04.598Z,0.90
2022-09-28T10:01:39.898Z,1.13
2022-09-28T10:04:22.322Z,0.80
2022-09-28T10:06:51.945Z,0.60
2022-09-28T10:09:22.763Z,0.83
2022-09-28T10:11:52.039Z,1.00
2022-09-28T10:14:23.214Z,1.20
2022-09-28T10:17:02.361Z,0.83
2022-09-28T10:19:49.337Z,1.10
2022-09-28T10:22:46.896Z,0.83
2022-09-28T10:25:18.453Z,1.13
2022-09-28T10:27:49.354Z,0.67
2022-09-28T10:30:19.969Z,0.80
2022-09-28T10:32:49.049Z,1.17
2022-09-28T10:35:24.367Z,1.33
2022-09-28T10:38:07.759Z,1.30
2022-09-28T10:40:46.293Z,1.30
2022-09-28T10:43:20.071Z,1.00
2022-09-28T10:45:51.200Z,1.33
2022-09-28T10:48:20.633Z,1.20
2022-09-28T10:50:59.701Z,0.97
2022-09-28T10:53:27.967Z,0.57
2022-09-28T10:56:06.331Z,0.80
2022-09-28T10:58:38.346Z,0.80
2022-09-28T11:01:10.941Z,1.67
2022-09-28T11:03:49.245Z,1.67
2022-09-28T11:06:25.352Z,1.57
2022-09-28T11:08:53.713Z,1.27
2022-09-28T11:11:22.201Z,1.20
2022-09-28T11:14:01.600Z,1.00
2022-09-28T11:16:36.245Z,0.90
2022-09-28T11:19:07.222Z,0.80
2022-09-28T11:21:42.765Z,0.93
2022-09-28T11:24:20.088Z,0.80
2022-09-28T11:26:52.591Z,0.73
2022-09-28T11:29:26.856Z,0.70
2022-09-28T11:32:16.085Z,0.67
2022-09-28T11:35:24.487Z,1.00
2022-09-28T11:38:00.958Z,0.87
2022-09-28T11:40:52.210Z,0.97
2022-09-28T11:43:28.046Z,0.73
2022-09-28T11:45:59.323Z,1.03
2022-09-28T11:48:31.091Z,1.23
2022-09-28T11:51:01.293Z,1.03
2022-09-28T11:53:31.539Z,1.30
2022-09-28T11:56:08.972Z,1.00
2022-09-28T11:58:40.829Z,0.70
2022-09-28T12:01:18.957Z,1.10
2022-09-28T12:04:16.165Z,0.93
2022-09-28T12:06:47.229Z,1.20
2022-09-28T12:09:22.624Z,0.73
2022-09-28T12:12:02.069Z,1.13
2022-09-28T12:14:50.472Z,1.20
2022-09-28T12:17:22.622Z,1.10
2022-09-28T12:19:55.442Z,1.00
2022-09-28T12:22:25.514Z,1.13
2022-09-28T12:24:55.295Z,1.30
2022-09-28T12:27:26.124Z,1.70
2022-09-28T12:29:56.929Z,2.00
2022-09-28T12:32:29.569Z,2.30
2022-09-28T12:34:59.145Z,2.40
2022-09-28T12:37:36.704Z,2.00
2022-09-28T12:40:22.658Z,1.43
2022-09-28T12:43:01.280Z,1.70
2022-09-28T12:46:06.797Z,1.33
2022-09-28T12:48:42.180Z,1.30
2022-09-28T12:51:16.841Z,1.70
2022-09-28T12:53:55.169Z,1.50
2022-09-28T12:56:25.820Z,1.23
2022-09-28T12:59:01.544Z,1.13
2022-09-28T13:01:51.460Z,0.90
2022-09-28T13:04:27.382Z,1.50
2022-09-28T13:07:03.821Z,1.30
2022-09-28T13:09:34.345Z,1.10
2022-09-28T13:12:13.218Z,1.17
2022-09-28T13:15:13.350Z,0.90
2022-09-28T13:17:46.557Z,1.20
2022-09-28T13:20:24.019Z,1.60
2022-09-28T13:22:58.677Z,1.50
2022-09-28T13:25:28.272Z,1.60
2022-09-28T13:27:58.127Z,1.53
2022-09-28T13:30:27.089Z,1.57
2022-09-28T13:32:56.321Z,1.37
2022-09-28T13:35:24.560Z,1.27
2022-09-28T13:38:31.556Z,1.27
2022-09-28T13:41:35.463Z,1.30
2022-09-28T13:44:29.509Z,1.23
2022-09-28T13:47:04.358Z,1.40
2022-09-28T13:49:37.223Z,1.17
2022-09-28T13:52:06.384Z,1.30
2022-09-28T13:54:53.342Z,1.50
2022-09-28T13:57:25.485Z,1.37
2022-09-28T14:00:09.104Z,1.90
2022-09-28T14:02:42.409Z,1.60
2022-09-28T14:05:43.432Z,1.50
2022-09-28T14:08:21.318Z,1.50
2022-09-28T14:10:51.762Z,1.40
2022-09-28T14:14:00.454Z,1.37
2022-09-28T14:16:31.165Z,1.40
2022-09-28T14:19:01.464Z,1.70
2022-09-28T14:22:01.432Z,1.23
2022-09-28T14:24:36.864Z,1.33
2022-09-28T14:27:32.516Z,1.60
2022-09-28T14:30:17.678Z,1.57
2022-09-28T14:32:50.429Z,1.50
2022-09-28T14:35:29.740Z,1.50
2022-09-28T14:38:17.969Z,1.77
2022-09-28T14:41:12.606Z,1.50
2022-09-28T14:44:16.420Z,1.53
2022-09-28T14:46:46.240Z,1.53
2022-09-28T14:49:57.052Z,1.50
2022-09-28T14:52:45.914Z,1.60
2022-09-28T14:55:18.736Z,1.80
2022-09-28T14:57:50.748Z,1.43
2022-09-28T15:00:21.994Z,1.77
2022-09-28T15:02:52.809Z,1.50
2022-09-28T15:05:23.958Z,1.80
2022-09-28T15:07:53.353Z,1.70
2022-09-28T15:10:32.318Z,1.87
2022-09-28T15:13:02.380Z,1.60
2022-09-28T15:15:33.735Z,1.53
2022-09-28T15:18:10.430Z,1.80
2022-09-28T15:20:39.144Z,1.70
2022-09-28T15:23:27.759Z,1.77
2022-09-28T15:25:56.142Z,1.67
2022-09-28T15:28:25.184Z,1.50
2022-09-28T15:30:57.431Z,1.43
2022-09-28T15:33:45.733Z,1.33
2022-09-28T15:36:16.811Z,1.70
2022-09-28T15:38:45.025Z,1.60
2022-09-28T15:41:13.447Z,1.50
2022-09-28T15:43:41.613Z,1.47
2022-09-28T15:46:18.451Z,1.90
2022-09-28T15:48:52.165Z,1.70
2022-09-28T15:51:21.455Z,2.07
2022-09-28T15:53:54.108Z,2.07
2022-09-28T15:56:22.420Z,2.00
2022-09-28T15:59:09.246Z,1.80
2022-09-28T16:01:38.129Z,1.80
2022-09-28T16:04:40.009Z,1.93
2022-09-28T16:07:21.898Z,1.83
2022-09-28T16:10:01.538Z,1.87
2022-09-28T16:12:34.889Z,2.00
2022-09-28T16:15:05.336Z,2.17
2022-09-28T16:17:34.079Z,2.13
2022-09-28T16:20:05.405Z,2.10
2022-09-28T16:22:34.064Z,2.00
2022-09-28T16:25:02.901Z,2.43
2022-09-28T16:27:31.720Z,2.30
2022-09-28T16:30:12.283Z,2.10
2022-09-28T16:32:41.894Z,2.00
2022-09-28T16:35:19.860Z,1.97
2022-09-28T16:37:48.864Z,1.80
2022-09-28T16:40:17.237Z,2.87
2022-09-28T16:42:49.081Z,2.27
2022-09-28T16:45:19.910Z,2.40
2022-09-28T16:47:52.872Z,2.77
2022-09-28T16:50:22.729Z,2.40
2022-09-28T16:53:08.613Z,2.90
2022-09-28T16:55:40.501Z,2.30
2022-09-28T16:58:09.246Z,4.80
2022-09-28T17:00:37.403Z,2.37
2022-09-28T17:03:20.431Z,2.10
2022-09-28T17:05:52.405Z,2.00
2022-09-28T17:08:22.322Z,1.70
2022-09-28T17:11:13.842Z,1.50
2022-09-28T17:13:41.496Z,1.90
2022-09-28T17:16:12.967Z,2.20
2022-09-28T17:18:41.226Z,2.33
2022-09-28T17:21:13.384Z,2.10
2022-09-28T17:23:41.553Z,2.10
2022-09-28T17:26:09.918Z,2.07
2022-09-28T17:28:38.374Z,1.93
2022-09-28T17:31:08.303Z,1.67
2022-09-28T17:33:36.528Z,4.47
2022-09-28T17:36:05.454Z,5.50
2022-09-28T17:38:36.575Z,3.13
2022-09-28T17:41:04.781Z,1.83
2022-09-28T17:43:33.361Z,2.10
2022-09-28T17:46:01.591Z,1.60
2022-09-28T17:48:29.797Z,1.60
2022-09-28T17:51:00.093Z,1.70
2022-09-28T17:53:28.530Z,2.10
2022-09-28T17:55:58.157Z,1.50
2022-09-28T17:58:26.639Z,2.07
2022-09-28T18:00:54.840Z,1.73
2022-09-28T18:03:23.933Z,2.00
2022-09-28T18:05:53.879Z,2.10
2022-09-28T18:08:22.668Z,2.20
2022-09-28T18:10:51.334Z,1.97
2022-09-28T18:13:20.916Z,1.70
2022-09-28T18:15:51.564Z,2.00
2022-09-28T18:18:19.770Z,2.90
2022-09-28T18:20:47.981Z,2.20
2022-09-28T18:23:16.194Z,2.90
2022-09-28T18:25:45.289Z,2.50
2022-09-28T18:28:13.796Z,2.60
2022-09-28T18:30:44.077Z,2.60
2022-09-28T18:33:12.771Z,2.53
2022-09-28T18:35:41.002Z,2.40
2022-09-28T18:38:09.255Z,2.70
2022-09-28T18:40:38.017Z,2.60
2022-09-28T18:43:06.207Z,2.30
2022-09-28T18:45:34.795Z,2.80
2022-09-28T18:48:04.611Z,2.60
2022-09-28T18:50:32.780Z,2.73
2022-09-28T18:53:11.552Z,2.97
2022-09-28T18:55:40.587Z,2.70
2022-09-28T18:58:09.070Z,2.70
2022-09-28T19:00:38.761Z,2.73
2022-09-28T19:03:08.466Z,3.00
2022-09-28T19:05:36.754Z,3.27
2022-09-28T19:08:05.204Z,2.50
2022-09-28T19:10:33.413Z,2.70
2022-09-28T19:13:01.591Z,2.80
2022-09-28T19:15:29.862Z,2.80
2022-09-28T19:17:58.163Z,3.33
2022-09-28T19:20:27.791Z,2.80
2022-09-28T19:22:55.950Z,3.10
2022-09-28T19:25:24.113Z,3.10
2022-09-28T19:27:52.279Z,3.20
2022-09-28T19:30:20.504Z,3.20
2022-09-28T19:32:48.695Z,3.57
2022-09-28T19:35:17.374Z,2.80
2022-09-28T19:37:46.987Z,3.37
2022-09-28T19:40:15.215Z,3.27
2022-09-28T19:42:43.400Z,3.60
2022-09-28T19:45:11.780Z,3.70
2022-09-28T19:47:40.251Z,3.80
2022-09-28T19:50:10.332Z,3.67
2022-09-28T19:52:38.489Z,3.83
2022-09-28T19:55:09.193Z,3.70
2022-09-28T19:57:37.370Z,3.70
2022-09-28T20:00:06.845Z,3.60
2022-09-28T20:02:35.215Z,3.40
2022-09-28T20:05:03.471Z,3.70
2022-09-28T20:07:33.420Z,3.60
2022-09-28T20:10:01.617Z,4.00
2022-09-28T20:12:31.197Z,3.77
2022-09-28T20:14:59.377Z,3.70
2022-09-28T20:17:27.580Z,3.60
2022-09-28T20:19:55.798Z,3.57
2022-09-28T20:22:24.030Z,3.80
2022-09-28T20:24:52.208Z,3.77
2022-09-28T20:27:24.351Z,3.90
2022-09-28T20:29:55.817Z,3.73
2022-09-28T20:32:23.994Z,3.70
2022-09-28T20:34:52.203Z,3.10
2022-09-28T20:37:20.402Z,3.33
2022-09-28T20:39:48.924Z,2.77
2022-09-28T20:42:17.425Z,2.53
2022-09-28T20:44:45.973Z,3.10
2022-09-28T20:47:15.524Z,3.07
2022-09-28T20:49:44.484Z,2.93
2022-09-28T20:52:12.672Z,2.83
2022-09-28T20:54:41.248Z,2.90
2022-09-28T20:57:17.592Z,2.80
2022-09-28T20:59:47.177Z,2.93
2022-09-28T21:02:18.910Z,2.63
2022-09-28T21:04:47.492Z,2.73
2022-09-28T21:07:15.685Z,2.90
2022-09-28T21:09:44.138Z,3.00
2022-09-28T21:12:12.898Z,3.13
2022-09-28T21:14:41.060Z,2.93
2022-09-28T21:17:09.289Z,3.07
2022-09-28T21:19:38.901Z,2.70
2022-09-28T21:22:07.686Z,3.00
2022-09-28T21:24:35.860Z,2.73
2022-09-28T21:27:04.028Z,2.73
2022-09-28T21:29:32.194Z,2.53
2022-09-28T21:32:00.399Z,2.63
2022-09-28T21:34:28.826Z,2.87
2022-09-28T21:36:58.437Z,2.80
2022-09-28T21:39:26.568Z,2.80
2022-09-28T21:41:54.812Z,3.07
2022-09-28T21:44:23.082Z,2.50
2022-09-28T21:46:51.287Z,2.60
2022-09-28T21:49:19.754Z,2.50
2022-09-28T21:51:48.017Z,2.57
2022-09-28T21:54:17.631Z,2.70
2022-09-28T21:56:45.812Z,2.70
2022-09-28T21:59:13.947Z,2.83
2022-09-28T22:01:42.912Z,3.07
2022-09-28T22:04:11.179Z,2.90
2022-09-28T22:06:39.847Z,2.83
2022-09-28T22:09:08.096Z,3.00
2022-09-28T22:11:37.755Z,3.10
2022-09-28T22:14:05.916Z,3.13
2022-09-28T22:16:34.409Z,3.40
2022-09-28T22:19:02.696Z,3.40
2022-09-28T22:21:31.949Z,3.87
2022-09-28T22:24:01.183Z,3.60
2022-09-28T22:26:29.612Z,3.70
2022-09-28T22:29:00.180Z,3.70
2022-09-28T22:31:29.127Z,3.00
2022-09-28T22:33:57.524Z,3.20
2022-09-28T22:36:25.984Z,2.93
2022-09-28T22:38:54.895Z,2.80
2022-09-28T22:41:23.330Z,3.00
2022-09-28T22:43:52.981Z,2.67
2022-09-28T22:46:23.463Z,2.93
2022-09-28T22:48:52.876Z,2.80
2022-09-28T22:51:21.152Z,2.80
2022-09-28T22:53:49.354Z,2.80
2022-09-28T22:56:19.179Z,3.10
2022-09-28T22:58:47.600Z,2.77
2022-09-28T23:01:17.349Z,3.10
2022-09-28T23:03:46.980Z,2.87
2022-09-28T23:06:16.143Z,2.90
2022-09-28T23:08:44.649Z,3.10
2022-09-28T23:11:13.149Z,3.33
2022-09-28T23:13:41.319Z,2.70
2022-09-28T23:16:11.035Z,2.73
2022-09-28T23:18:40.901Z,3.17
2022-09-28T23:21:12.320Z,2.90
2022-09-28T23:23:40.780Z,2.47
2022-09-28T23:26:12.666Z,2.50
2022-09-28T23:28:40.873Z,2.80
2022-09-28T23:31:10.151Z,3.00
2022-09-28T23:33:38.353Z,2.60
2022-09-28T23:36:07.194Z,3.33
2022-09-28T23:38:37.059Z,3.00
2022-09-28T23:41:05.540Z,2.90
2022-09-28T23:43:33.801Z,3.40
2022-09-28T23:46:02.041Z,3.10
2022-09-28T23:48:30.322Z,3.30
2022-09-28T23:50:58.488Z,3.43
2022-09-28T23:53:27.076Z,3.70
2022-09-28T23:55:56.769Z,3.80
2022-09-28T23:58:25.800Z,3.70
